Time;durP1;ratioP1;P1;durP2;ratioP2;P2;SDS_P1;SDS_P2;PMS_P1;PMS_P2;Temp;Humidity;BMP_temperature;BMP_pressure;BME280_temperature;BME280_humidity;BME280_pressure;Samples;Min_cycle;Max_cycle;Signal;HPM_P1;HPM_P2
2022/09/03 00:00:54;;;;;;;6.33;2.73;;;;;;;12.13;96.41;100802.69;1636093;87;21664;-59
2022/09/03 00:03:36;;;;;;;9.03;3.70;;;;;;;12.14;96.68;100810.84;1632797;85;21490;-58
2022/09/03 00:06:29;;;;;;;9.30;3.17;;;;;;;12.13;96.65;100818.88;1636772;87;21339;-57
2022/09/03 00:09:13;;;;;;;7.00;4.13;;;;;;;12.14;97.54;100820.48;1637000;87;21224;-55
2022/09/03 00:12:03;;;;;;;6.80;3.40;;;;;;;12.18;97.52;100821.75;1636685;87;21179;-57
2022/09/03 00:14:38;;;;;;;7.60;2.97;;;;;;;12.23;97.15;100824.63;1629472;87;21267;-55
2022/09/03 00:17:22;;;;;;;7.73;3.27;;;;;;;12.23;97.12;100825.93;1636805;87;21334;-54
2022/09/03 00:20:02;;;;;;;6.20;3.27;;;;;;;12.18;97.19;100820.44;1637034;87;21798;-55
2022/09/03 00:22:43;;;;;;;6.28;2.55;;;;;;;12.13;97.77;100818.88;1636492;87;21310;-54
2022/09/03 00:25:24;;;;;;;8.18;3.22;;;;;;;12.13;97.77;100818.88;1636062;87;20992;-56
2022/09/03 00:27:54;;;;;;;5.23;2.30;;;;;;;12.09;97.94;100818.41;1637105;87;20940;-54
2022/09/03 00:30:23;;;;;;;4.07;2.23;;;;;;;12.05;98.32;100806.70;1637480;87;21241;-55
2022/09/03 00:33:12;;;;;;;5.60;2.17;;;;;;;12.08;97.78;100806.81;1636254;87;21284;-57
2022/09/03 00:36:08;;;;;;;6.23;3.10;;;;;;;12.10;97.72;100816.61;1637070;87;21087;-55
2022/09/03 00:38:37;;;;;;;7.20;2.93;;;;;;;12.07;97.94;100830.02;1637091;87;21410;-56
2022/09/03 00:41:33;;;;;;;5.00;2.40;;;;;;;12.04;98.83;100835.11;1636696;86;21295;-56
2022/09/03 00:44:36;;;;;;;6.13;2.60;;;;;;;12.00;99.65;100841.67;1636503;87;21618;-55
2022/09/03 00:47:17;;;;;;;7.30;3.03;;;;;;;11.93;100.00;100839.45;1636370;87;21264;-59
2022/09/03 00:50:05;;;;;;;5.60;2.47;;;;;;;11.86;100.00;100832.03;1636800;87;21352;-56
2022/09/03 00:53:12;;;;;;;5.57;2.70;;;;;;;11.82;100.00;100827.63;1636317;87;20986;-67
2022/09/03 00:55:47;;;;;;;6.40;3.67;;;;;;;11.77;100.00;100828.62;1628047;87;21774;-56
2022/09/03 00:59:07;;;;;;;8.13;3.83;;;;;;;11.74;100.00;100837.31;1636943;87;22012;-56
2022/09/03 01:01:46;;;;;;;8.93;4.83;;;;;;;11.62;100.00;100846.87;1516497;92;21388;-55
2022/09/03 01:04:48;;;;;;;7.57;3.90;;;;;;;11.52;100.00;100858.06;1562482;90;21299;-55
2022/09/03 01:07:45;;;;;;;7.77;4.37;;;;;;;11.44;100.00;100857.63;1593876;86;21256;-55
2022/09/03 01:10:40;;;;;;;11.43;4.40;;;;;;;11.30;100.00;100847.92;1661210;86;21547;-65
2022/09/03 01:13:16;;;;;;;9.97;5.20;;;;;;;11.28;100.00;100855.10;1662172;86;21836;-56
2022/09/03 01:16:10;;;;;;;8.47;5.13;;;;;;;11.19;100.00;100853.53;1661816;86;21811;-55
2022/09/03 01:18:42;;;;;;;8.90;4.63;;;;;;;11.15;100.00;100846.55;1662291;85;21171;-55
2022/09/03 01:21:45;;;;;;;10.77;5.03;;;;;;;11.12;100.00;100840.86;1660728;86;21716;-65
2022/09/03 01:24:27;;;;;;;10.83;5.30;;;;;;;11.06;100.00;100840.23;1661448;86;21243;-55
2022/09/03 01:27:31;;;;;;;8.73;4.83;;;;;;;11.00;100.00;100853.97;1634976;86;21355;-56
2022/09/03 01:30:15;;;;;;;6.93;4.03;;;;;;;10.95;100.00;100855.80;1661643;86;22170;-58
2022/09/03 01:32:58;;;;;;;7.90;4.47;;;;;;;10.95;100.00;100854.00;1661601;86;21737;-58
2022/09/03 01:35:37;;;;;;;6.53;3.27;;;;;;;10.94;100.00;100854.95;1661753;86;21343;-66
2022/09/03 01:38:28;;;;;;;9.13;3.77;;;;;;;10.99;100.00;100853.66;1662467;86;21405;-57
2022/09/03 01:44:37;;;;;;;6.57;2.77;;;;;;;11.05;100.00;100852.96;1661753;86;21180;-67
2022/09/03 01:47:25;;;;;;;6.40;2.90;;;;;;;11.07;100.00;100853.61;1661634;86;21212;-55
2022/09/03 01:50:22;;;;;;;4.77;2.67;;;;;;;11.08;100.00;100855.23;1661800;86;22045;-56
2022/09/03 01:53:04;;;;;;;7.20;2.83;;;;;;;11.11;100.00;100860.92;1661912;86;21169;-55
2022/09/03 01:56:06;;;;;;;5.13;2.13;;;;;;;11.15;100.00;100864.00;1661435;86;21783;-64
2022/09/03 01:58:45;;;;;;;5.60;2.30;;;;;;;11.17;100.00;100864.63;1634245;86;22658;-65
2022/09/03 02:01:20;;;;;;;4.07;1.97;;;;;;;11.18;100.00;100862.36;1661893;86;21274;-57
2022/09/03 02:03:48;;;;;;;4.77;2.20;;;;;;;11.13;100.00;100867.27;1662347;85;21208;-57
2022/09/03 02:06:17;;;;;;;5.33;2.57;;;;;;;11.10;100.00;100871.05;1671611;84;21338;-55
2022/09/03 02:08:44;;;;;;;4.67;1.93;;;;;;;11.09;100.00;100875.11;1672219;84;21411;-55
2022/09/03 02:11:12;;;;;;;3.93;2.10;;;;;;;11.07;100.00;100881.01;1671900;85;21436;-55
2022/09/03 02:13:47;;;;;;;5.03;2.53;;;;;;;11.01;100.00;100886.41;1672414;85;21381;-55
2022/09/03 02:16:27;;;;;;;4.00;2.10;;;;;;;10.96;100.00;100883.00;1671730;85;21370;-56
2022/09/03 02:18:55;;;;;;;4.70;2.00;;;;;;;10.93;100.00;100889.86;1670262;84;21229;-60
2022/09/03 02:21:24;;;;;;;7.87;2.55;;;;;;;10.91;100.00;100895.75;1672484;84;21213;-56
2022/09/03 02:23:51;;;;;;;5.00;2.40;;;;;;;10.88;100.00;100898.70;1671604;85;21930;-58
2022/09/03 02:26:21;;;;;;;4.50;2.03;;;;;;;10.85;100.00;100892.50;1671863;84;21479;-57
2022/09/03 02:28:49;;;;;;;5.40;1.90;;;;;;;10.81;100.00;100899.04;1671574;85;21282;-66
2022/09/03 02:31:17;;;;;;;4.17;1.90;;;;;;;10.78;100.00;100899.38;1672207;84;21481;-58
2022/09/03 02:33:45;;;;;;;3.37;1.50;;;;;;;10.71;100.00;100895.81;1671920;85;21220;-58
2022/09/03 02:36:16;;;;;;;3.70;1.90;;;;;;;10.66;100.00;100896.31;1672181;85;21209;-56
2022/09/03 02:38:44;;;;;;;5.95;1.80;;;;;;;10.60;100.00;100894.86;1672259;85;21300;-65
2022/09/03 02:41:13;;;;;;;5.10;1.63;;;;;;;10.57;100.00;100888.21;1671973;85;20985;-56
2022/09/03 02:43:48;;;;;;;3.97;1.43;;;;;;;10.58;100.00;100891.13;1671607;85;21293;-63
2022/09/03 02:46:26;;;;;;;4.07;2.00;;;;;;;10.58;100.00;100889.02;1672167;85;21435;-56
2022/09/03 02:48:54;;;;;;;3.70;1.70;;;;;;;10.60;100.00;100890.95;1672060;85;21373;-56
2022/09/03 02:51:21;;;;;;;3.20;1.70;;;;;;;10.59;100.00;100886.23;1671459;84;21290;-57
2022/09/03 02:53:49;;;;;;;5.30;1.60;;;;;;;10.61;100.00;100889.99;1671985;84;21408;-57
2022/09/03 02:56:16;;;;;;;5.33;1.50;;;;;;;10.61;100.00;100888.20;1672322;85;21329;-57
2022/09/03 02:58:43;;;;;;;5.17;1.23;;;;;;;10.58;100.00;100893.73;1671240;85;21349;-57
2022/09/03 03:01:11;;;;;;;5.53;1.80;;;;;;;10.57;100.00;100894.73;1671971;84;21631;-65
2022/09/03 03:03:38;;;;;;;3.37;1.30;;;;;;;10.63;100.00;100888.02;1671907;84;21282;-56
2022/09/03 03:06:06;;;;;;;4.33;1.60;;;;;;;10.64;100.00;100900.06;1671959;85;21279;-57
2022/09/03 03:08:33;;;;;;;4.67;1.70;;;;;;;10.66;100.00;100895.51;1671987;84;21300;-58
2022/09/03 03:11:03;;;;;;;3.60;1.60;;;;;;;10.71;100.00;100894.50;1672120;85;21208;-55
2022/09/03 03:13:30;;;;;;;3.47;1.40;;;;;;;10.73;100.00;100887.84;1671596;85;21407;-55
2022/09/03 03:15:59;;;;;;;3.10;1.47;;;;;;;10.78;100.00;100893.34;1672076;84;21326;-56
2022/09/03 03:18:27;;;;;;;6.50;1.50;;;;;;;10.83;100.00;100886.62;1672225;85;21440;-64
2022/09/03 03:20:54;;;;;;;5.13;1.57;;;;;;;10.94;100.00;100886.75;1671533;85;21232;-55
2022/09/03 03:23:21;;;;;;;3.20;1.30;;;;;;;11.05;100.00;100886.88;1672183;85;21218;-56
2022/09/03 03:25:48;;;;;;;6.90;1.60;;;;;;;11.18;100.00;100893.17;1671802;84;21294;-55
2022/09/03 03:28:18;;;;;;;3.90;1.60;;;;;;;11.37;100.00;100897.15;1672377;85;21307;-55
2022/09/03 03:30:47;;;;;;;3.10;1.37;;;;;;;11.77;100.00;100903.06;1671739;84;21440;-59
2022/09/03 03:33:14;;;;;;;6.53;1.77;;;;;;;12.34;100.00;100896.07;1672212;85;22252;-56
2022/09/03 03:35:41;;;;;;;6.43;1.70;;;;;;;12.97;100.00;100899.64;1671420;85;21794;-56
2022/09/03 03:38:08;;;;;;;6.23;1.10;;;;;;;14.16;92.15;100877.23;1672384;85;22295;-55
2022/09/03 03:40:38;;;;;;;4.23;1.33;;;;;;;14.16;92.15;100877.23;1672133;85;21508;-65
2022/09/03 03:43:06;;;;;;;4.13;1.60;;;;;;;14.79;82.86;100873.28;1672299;85;22266;-55
2022/09/03 03:45:33;;;;;;;4.37;1.40;;;;;;;15.30;75.15;100880.72;1671810;84;21901;-65
2022/09/03 03:48:01;;;;;;;4.20;1.60;;;;;;;15.82;69.86;100880.52;1672312;85;21358;-55
2022/09/03 03:50:28;;;;;;;5.10;1.57;;;;;;;16.25;65.63;100880.91;1672164;85;21157;-57
2022/09/03 03:53:01;;;;;;;3.80;1.73;;;;;;;16.48;61.83;100887.03;1671716;84;21040;-57
2022/09/03 03:55:28;;;;;;;3.17;1.70;;;;;;;16.51;60.61;100892.38;1672107;84;21150;-64
2022/09/03 03:57:55;;;;;;;4.80;1.93;;;;;;;16.52;59.40;100898.77;1672055;84;21565;-57
2022/09/03 04:00:23;;;;;;;3.93;1.50;;;;;;;16.37;59.30;100898.19;1669377;84;21361;-55
2022/09/03 04:02:51;;;;;;;3.97;1.90;;;;;;;16.22;58.99;100894.47;1671757;84;21339;-58
2022/09/03 04:05:18;;;;;;;7.00;2.20;;;;;;;16.13;59.73;100896.18;1671656;84;21142;-56
2022/09/03 04:07:45;;;;;;;5.33;1.53;;;;;;;16.13;60.08;100893.04;1671969;84;21064;-61
2022/09/03 04:10:14;;;;;;;7.27;3.03;;;;;;;16.16;60.04;100878.68;1671986;84;21163;-56
2022/09/03 04:12:42;;;;;;;8.80;1.90;;;;;;;16.20;59.85;100875.44;1672276;85;21041;-55
2022/09/03 04:15:10;;;;;;;5.03;2.10;;;;;;;16.35;60.20;100880.98;1671524;84;21162;-55
2022/09/03 04:17:38;;;;;;;5.07;2.30;;;;;;;16.69;59.92;100886.45;1672372;85;20976;-54
2022/09/03 04:20:07;;;;;;;5.47;2.33;;;;;;;17.02;58.30;100883.73;1671533;84;21108;-64
2022/09/03 04:22:34;;;;;;;5.30;2.97;;;;;;;17.35;56.93;100879.61;1672178;85;21043;-55
2022/09/03 04:25:03;;;;;;;7.13;2.87;;;;;;;17.82;55.67;100878.78;1671961;85;21506;-56
2022/09/03 04:27:30;;;;;;;6.17;2.60;;;;;;;18.32;53.36;100874.77;1672455;85;22272;-60
2022/09/03 04:29:58;;;;;;;5.03;2.40;;;;;;;18.73;51.35;100881.26;1671614;84;20996;-65
2022/09/03 04:35:13;;;;;;;5.87;2.50;;;;;;;19.54;49.42;100879.94;1672415;85;21862;-55
2022/09/03 04:37:40;;;;;;;6.53;2.20;;;;;;;20.07;47.62;100885.72;1671692;84;21052;-58
2022/09/03 04:40:08;;;;;;;4.97;1.97;;;;;;;20.47;46.34;100878.91;1672125;84;21077;-56
2022/09/03 04:42:37;;;;;;;5.03;2.40;;;;;;;20.87;45.21;100880.27;1671510;84;21019;-55
2022/09/03 04:45:05;;;;;;;4.33;2.20;;;;;;;21.34;43.70;100885.41;1672384;85;21035;-55
2022/09/03 04:47:37;;;;;;;5.70;2.80;;;;;;;21.61;42.52;100886.39;1671519;85;21013;-59
2022/09/03 04:50:05;;;;;;;5.15;2.65;;;;;;;21.73;41.73;100892.14;1672418;84;21127;-56
2022/09/03 04:52:33;;;;;;;5.80;2.93;;;;;;;21.80;41.61;100889.61;1672046;85;21890;-55
2022/09/03 04:55:02;;;;;;;6.27;2.50;;;;;;;21.91;41.05;100893.23;1672402;85;22456;-55
2022/09/03 04:57:34;;;;;;;5.70;2.90;;;;;;;21.97;40.41;100901.56;1671790;85;21020;-56
2022/09/03 05:00:01;;;;;;;5.60;2.70;;;;;;;21.97;40.34;100887.45;1672115;85;21312;-54
2022/09/03 05:02:28;;;;;;;5.13;2.43;;;;;;;21.97;40.36;100888.78;1672001;85;21056;-55
2022/09/03 05:04:56;;;;;;;5.23;2.07;;;;;;;22.03;39.60;100881.98;1668674;85;21164;-54
2022/09/03 05:07:23;;;;;;;7.23;2.43;;;;;;;21.95;39.46;100885.58;1635936;87;21077;-55
2022/09/03 05:09:51;;;;;;;5.43;2.97;;;;;;;21.85;39.54;100888.88;1636925;86;21486;-55
2022/09/03 05:12:22;;;;;;;4.93;1.90;;;;;;;21.85;39.93;100876.41;1636452;87;21011;-65
2022/09/03 05:14:48;;;;;;;4.23;2.07;;;;;;;21.99;39.55;100873.43;1636680;87;21364;-55
2022/09/03 05:17:16;;;;;;;3.80;2.23;;;;;;;22.07;39.83;100875.66;1636233;86;21302;-64
2022/09/03 05:19:44;;;;;;;4.47;2.10;;;;;;;22.13;39.35;100879.22;1636529;87;21492;-55
2022/09/03 05:22:11;;;;;;;4.23;1.80;;;;;;;22.04;39.62;100890.22;1636437;87;20994;-64
2022/09/03 05:24:38;;;;;;;6.07;2.50;;;;;;;21.86;39.34;100890.50;1636503;87;21110;-55
2022/09/03 05:27:05;;;;;;;4.07;1.40;;;;;;;21.68;39.38;100886.77;1636562;87;21070;-57
2022/09/03 05:29:32;;;;;;;3.87;1.67;;;;;;;21.61;39.67;100894.87;1636648;87;21616;-55
2022/09/03 05:32:02;;;;;;;2.70;0.97;;;;;;;21.64;39.93;100898.91;1636598;87;21035;-62
2022/09/03 05:34:30;;;;;;;4.33;1.40;;;;;;;21.32;39.41;100896.73;1636439;87;21075;-54
2022/09/03 05:36:57;;;;;;;3.00;1.37;;;;;;;20.54;40.53;100901.62;1636714;87;21106;-54
2022/09/03 05:39:25;;;;;;;5.03;1.37;;;;;;;19.91;41.91;100899.64;1636051;87;21611;-55
2022/09/03 05:41:52;;;;;;;4.97;1.30;;;;;;;19.53;43.29;100901.34;1636598;87;21327;-56
2022/09/03 05:44:22;;;;;;;3.87;1.40;;;;;;;19.32;43.62;100906.60;1636373;87;20982;-64
2022/09/03 05:46:50;;;;;;;3.13;1.60;;;;;;;19.10;44.43;100906.31;1636158;87;21111;-55
2022/09/03 05:49:17;;;;;;;3.90;1.40;;;;;;;19.04;45.21;100908.00;1635928;87;21050;-57
2022/09/03 05:51:45;;;;;;;4.30;1.13;;;;;;;19.09;45.50;100913.44;1636844;87;21339;-54
2022/09/03 05:54:13;;;;;;;2.90;1.03;;;;;;;19.16;45.47;100911.48;1636691;87;21226;-54
2022/09/03 05:56:41;;;;;;;2.70;1.07;;;;;;;19.50;44.98;100904.42;1636279;87;21035;-64
2022/09/03 05:59:09;;;;;;;4.17;1.07;;;;;;;19.85;43.96;100896.58;1635861;87;21562;-56
2022/09/03 06:01:41;;;;;;;2.90;1.20;;;;;;;19.87;43.58;100900.62;1636510;87;21440;-55
2022/09/03 06:04:11;;;;;;;4.30;1.53;;;;;;;19.77;43.72;100904.33;1636627;87;21113;-55
2022/09/03 06:06:44;;;;;;;2.92;1.10;;;;;;;19.63;44.00;100901.11;1636404;85;21803;-64
2022/09/03 06:09:18;;;;;;;3.80;1.07;;;;;;;19.56;44.48;100894.28;1636236;87;21521;-55
2022/09/03 06:11:45;;;;;;;3.90;1.40;;;;;;;19.59;45.23;100895.95;1636788;87;21090;-55
2022/09/03 06:14:13;;;;;;;5.27;1.50;;;;;;;19.68;44.86;100901.22;1636536;87;20979;-57
2022/09/03 06:16:43;;;;;;;3.27;1.30;;;;;;;19.73;44.08;100891.80;1636919;87;21094;-62
2022/09/03 06:19:12;;;;;;;6.30;4.10;;;;;;;19.63;44.12;100893.17;1636623;87;22315;-57
2022/09/03 06:21:41;;;;;;;3.13;1.43;;;;;;;19.67;44.29;100891.69;1637180;87;21066;-56
2022/09/03 06:24:19;;;;;;;5.10;2.97;;;;;;;19.87;44.32;100891.36;1636818;87;21603;-57
2022/09/03 06:26:46;;;;;;;9.17;6.03;;;;;;;20.12;43.53;100887.18;1635668;87;21143;-58
2022/09/03 06:29:13;;;;;;;5.20;2.53;;;;;;;20.46;43.54;100883.41;1636665;87;21127;-57
2022/09/03 06:31:41;;;;;;;3.37;1.50;;;;;;;21.04;41.99;100890.94;1637152;87;21224;-56
2022/09/03 06:34:08;;;;;;;4.27;1.50;;;;;;;21.49;41.00;100889.64;1636746;87;21091;-57
2022/09/03 06:36:36;;;;;;;5.00;2.73;;;;;;;21.57;41.01;100894.55;1636911;87;21083;-66
2022/09/03 06:39:03;;;;;;;4.07;1.50;;;;;;;22.00;40.85;100902.38;1636435;87;20995;-56
2022/09/03 06:41:34;;;;;;;4.73;1.60;;;;;;;22.39;38.87;100896.30;1637018;87;21374;-57
2022/09/03 06:44:05;;;;;;;4.10;1.83;;;;;;;22.62;38.78;100904.59;1637089;87;21469;-56
2022/09/03 06:46:34;;;;;;;6.80;2.10;;;;;;;22.75;38.48;100885.59;1637102;87;20984;-67
2022/09/03 06:49:02;;;;;;;5.77;1.90;;;;;;;23.05;38.19;100875.85;1636544;87;21014;-57
2022/09/03 06:51:32;;;;;;;2.40;1.37;;;;;;;23.25;37.17;100885.88;1637308;87;20932;-58
2022/09/03 06:54:01;;;;;;;2.93;1.50;;;;;;;23.24;36.82;100887.73;1637331;87;21044;-56
2022/09/03 06:56:29;;;;;;;3.03;1.80;;;;;;;23.14;36.82;100881.52;1637318;87;21137;-65
2022/09/03 06:58:58;;;;;;;5.33;1.83;;;;;;;23.06;36.65;100874.26;1636600;86;21299;-56
2022/09/03 07:01:29;;;;;;;3.00;1.43;;;;;;;23.10;36.72;100864.45;1637333;87;21920;-56
2022/09/03 07:03:59;;;;;;;3.57;1.77;;;;;;;23.20;36.19;100857.91;1637346;87;21031;-56
2022/09/03 07:06:29;;;;;;;3.53;1.50;;;;;;;23.43;36.39;100852.79;1637370;84;21107;-56
2022/09/03 07:08:58;;;;;;;3.30;1.77;;;;;;;23.62;35.65;100855.86;1636321;87;22488;-57
2022/09/03 07:11:29;;;;;;;3.13;1.60;;;;;;;23.64;35.24;100871.03;1637461;87;21924;-56
2022/09/03 07:13:57;;;;;;;2.97;1.40;;;;;;;23.53;35.38;100865.66;1637461;86;21074;-56
2022/09/03 07:16:29;;;;;;;4.27;1.90;;;;;;;23.62;35.64;100869.17;1637388;87;20936;-56
2022/09/03 07:18:56;;;;;;;4.50;2.07;;;;;;;23.84;34.79;100867.77;1635758;87;21062;-60
2022/09/03 07:21:25;;;;;;;2.90;1.50;;;;;;;23.97;34.98;100861.45;1636748;87;22290;-56
2022/09/03 07:23:53;;;;;;;6.53;1.60;;;;;;;24.11;34.84;100857.01;1636842;87;20939;-56
2022/09/03 07:26:29;;;;;;;3.47;1.37;;;;;;;24.29;33.79;100872.56;1636635;87;21051;-56
2022/09/03 07:28:57;;;;;;;2.87;1.50;;;;;;;24.41;33.39;100859.05;1636241;87;21545;-58
2022/09/03 07:31:28;;;;;;;5.35;1.92;;;;;;;24.64;33.26;100835.14;1636934;87;21547;-58
2022/09/03 07:34:04;;;;;;;2.70;1.47;;;;;;;24.72;32.81;100834.63;1637075;86;21877;-57
2022/09/03 07:36:42;;;;;;;3.40;1.10;;;;;;;24.80;33.08;100845.30;1636637;87;21036;-64
2022/09/03 07:39:11;;;;;;;3.35;1.57;;;;;;;24.77;33.00;100831.95;1637221;87;21408;-56
2022/09/03 07:41:44;;;;;;;3.67;2.17;;;;;;;24.68;32.29;100830.34;1637060;87;21042;-55
2022/09/03 07:44:08;;;;;;;2.60;1.23;;;;;;;24.33;32.46;100833.67;1636477;87;21067;-55
2022/09/03 07:46:37;;;;;;;5.10;1.60;;;;;;;24.07;32.76;100830.63;1635898;86;21789;-63
2022/09/03 07:49:05;;;;;;;4.53;1.10;;;;;;;23.98;33.31;100827.13;1637299;87;21147;-55
2022/09/03 07:51:35;;;;;;;2.93;1.13;;;;;;;23.99;33.15;100829.25;1637084;87;20983;-56
2022/09/03 07:54:05;;;;;;;4.87;1.13;;;;;;;23.93;33.24;100819.08;1637506;87;21020;-55
2022/09/03 07:56:34;;;;;;;2.00;0.90;;;;;;;24.11;33.37;100813.06;1636416;87;21027;-65
2022/09/03 07:59:02;;;;;;;2.80;1.07;;;;;;;24.28;32.96;100814.48;1636626;87;21602;-55
2022/09/03 08:01:32;;;;;;;2.13;1.10;;;;;;;24.54;33.00;100804.45;1636913;87;21556;-55
2022/09/03 08:04:00;;;;;;;2.75;1.30;;;;;;;24.80;32.26;100792.77;1637022;87;21099;-55
2022/09/03 08:06:28;;;;;;;3.57;1.00;;;;;;;25.01;31.82;100796.28;1640924;85;21345;-65
2022/09/03 08:09:00;;;;;;;5.17;2.77;;;;;;;24.97;31.50;100801.34;1652045;86;21398;-56
2022/09/03 08:11:27;;;;;;;3.30;1.97;;;;;;;24.85;31.75;100798.14;1653081;85;21256;-55
2022/09/03 08:14:01;;;;;;;3.90;1.70;;;;;;;24.91;31.93;100790.92;1652957;86;21123;-55
2022/09/03 08:16:33;;;;;;;3.57;2.00;;;;;;;24.92;31.48;100779.98;1652768;86;20977;-62
2022/09/03 08:19:02;;;;;;;3.80;2.02;;;;;;;24.98;31.88;100786.93;1652758;86;22504;-55
2022/09/03 08:21:29;;;;;;;4.00;1.13;;;;;;;25.17;31.70;100781.89;1652847;86;21275;-55
2022/09/03 08:24:04;;;;;;;2.63;1.20;;;;;;;25.39;31.43;100781.62;1653061;86;22620;-55
2022/09/03 08:26:34;;;;;;;4.13;1.30;;;;;;;25.44;31.27;100774.93;1652411;86;20981;-59
2022/09/03 08:29:02;;;;;;;4.00;1.40;;;;;;;25.20;31.54;100777.36;1652791;86;21549;-55
2022/09/03 08:31:31;;;;;;;3.57;1.10;;;;;;;25.04;31.87;100774.92;1652703;86;21037;-55
2022/09/03 08:34:02;;;;;;;3.03;1.80;;;;;;;25.09;32.01;100762.94;1652722;86;21065;-55
2022/09/03 08:36:29;;;;;;;1.70;1.00;;;;;;;25.22;31.40;100767.75;1652310;86;21468;-63
2022/09/03 08:39:02;;;;;;;2.47;1.13;;;;;;;25.17;31.21;100762.42;1652904;86;21084;-55
2022/09/03 08:41:54;;;;;;;3.25;1.12;;;;;;;25.12;31.84;100759.23;1652470;86;21021;-55
2022/09/03 08:44:47;;;;;;;2.33;1.10;;;;;;;25.28;31.95;100765.35;1652453;86;21031;-55
2022/09/03 08:47:41;;;;;;;3.17;1.07;;;;;;;25.43;31.57;100765.33;1652706;86;21040;-55
2022/09/03 08:50:18;;;;;;;1.60;0.90;;;;;;;25.46;31.44;100752.78;1635669;86;21576;-56
2022/09/03 08:52:48;;;;;;;5.07;1.20;;;;;;;25.33;31.26;100743.98;1652742;86;21002;-54
2022/09/03 08:55:28;;;;;;;3.42;1.05;;;;;;;25.31;31.68;100730.13;1652328;86;21413;-64
2022/09/03 08:58:15;;;;;;;2.13;1.00;;;;;;;25.36;31.51;100733.31;1652898;86;21073;-55
2022/09/03 09:01:11;;;;;;;4.80;1.23;;;;;;;25.36;32.13;100732.78;1648435;86;21539;-63
2022/09/03 09:04:27;;;;;;;3.50;0.90;;;;;;;25.39;31.65;100734.91;1652614;86;21227;-55
2022/09/03 09:06:59;;;;;;;3.43;1.00;;;;;;;25.31;32.00;100720.79;1652431;85;20986;-55
2022/09/03 09:09:55;;;;;;;4.67;1.57;;;;;;;25.47;31.70;100721.02;1652404;86;21070;-64
2022/09/03 09:12:57;;;;;;;2.47;1.20;;;;;;;25.55;31.39;100709.52;1652845;86;21102;-55
2022/09/03 09:15:53;;;;;;;2.37;0.90;;;;;;;25.39;31.20;100712.23;1652809;86;21067;-54
2022/09/03 09:19:03;;;;;;;1.87;1.17;;;;;;;25.24;31.77;100709.59;1652958;86;22648;-55
2022/09/03 09:21:35;;;;;;;3.83;1.60;;;;;;;25.34;31.73;100711.42;1653144;86;21013;-57
2022/09/03 09:24:05;;;;;;;3.43;1.20;;;;;;;25.47;31.23;100696.98;1652377;86;21093;-64
2022/09/03 09:26:32;;;;;;;3.45;1.27;;;;;;;25.59;31.73;100699.89;1653186;86;21458;-55
2022/09/03 09:29:05;;;;;;;1.63;0.90;;;;;;;25.71;31.68;100692.37;1653319;86;21040;-55
2022/09/03 09:31:32;;;;;;;1.67;0.80;;;;;;;25.76;31.50;100676.34;1653232;86;21206;-55
2022/09/03 09:34:05;;;;;;;2.20;1.00;;;;;;;25.79;31.45;100670.46;1652590;86;21495;-58
2022/09/03 09:36:47;;;;;;;1.80;1.00;;;;;;;25.80;30.99;100680.60;1652633;86;21437;-55
2022/09/03 09:39:14;;;;;;;2.08;1.00;;;;;;;25.74;30.73;100663.79;1652726;86;21053;-54
2022/09/03 09:41:43;;;;;;;3.87;0.97;;;;;;;25.69;30.94;100676.63;1652365;85;21025;-54
2022/09/03 09:44:18;;;;;;;2.40;0.90;;;;;;;25.55;30.92;100670.81;1652473;86;21152;-55
2022/09/03 09:46:45;;;;;;;2.53;0.90;;;;;;;25.43;31.25;100677.25;1652906;86;20981;-54
2022/09/03 09:49:38;;;;;;;4.03;1.10;;;;;;;25.32;30.91;100663.67;1653042;86;20969;-54
2022/09/03 09:52:15;;;;;;;2.40;1.00;;;;;;;25.23;31.17;100649.30;1652734;86;21576;-55
2022/09/03 09:54:41;;;;;;;2.63;1.00;;;;;;;25.31;31.62;100667.42;1652282;86;21542;-55
2022/09/03 09:57:23;;;;;;;4.50;0.90;;;;;;;25.45;31.21;100667.09;1652528;86;21189;-66
2022/09/03 10:00:02;;;;;;;2.33;0.90;;;;;;;25.50;31.35;100670.84;1652849;86;21530;-56
2022/09/03 10:02:36;;;;;;;;;;;;;;;25.47;31.15;100664.17;1653697;86;20985;-60
2022/09/03 10:05:19;;;;;;;4.33;0.80;;;;;;;25.42;31.42;100667.66;1652671;85;20461;-64
2022/09/03 10:08:03;;;;;;;1.83;0.90;;;;;;;25.44;30.71;100660.16;1635255;86;21064;-55
2022/09/03 10:10:36;;;;;;;2.40;0.80;;;;;;;25.39;30.96;100662.86;1659628;86;21051;-64
2022/09/03 10:13:11;;;;;;;1.63;0.70;;;;;;;25.43;30.87;100655.11;1634437;86;21103;-56
2022/09/03 10:15:59;;;;;;;2.77;0.80;;;;;;;25.46;30.75;100659.37;1628574;86;21027;-60
2022/09/03 10:18:50;;;;;;;2.87;0.67;;;;;;;25.48;29.77;100687.11;1658973;86;21012;-55
2022/09/03 10:21:33;;;;;;;3.62;1.00;;;;;;;25.42;30.14;100654.31;1653926;86;21048;-62
2022/09/03 10:24:39;;;;;;;1.80;0.90;;;;;;;25.53;30.34;100646.25;1659446;84;21709;-56
2022/09/03 10:27:10;;;;;;;3.90;1.30;;;;;;;25.65;29.57;100631.53;1659279;86;21472;-67
2022/09/03 10:29:39;;;;;;;1.52;0.80;;;;;;;25.66;29.69;100637.13;1660198;84;21604;-57
2022/09/03 10:32:52;;;;;;;1.67;0.73;;;;;;;25.69;29.62;100633.12;1659896;84;21124;-56
2022/09/03 10:35:32;;;;;;;2.30;0.80;;;;;;;25.67;29.81;100632.58;1659766;86;21037;-56
2022/09/03 10:38:16;;;;;;;2.17;0.77;;;;;;;25.58;29.59;100635.56;1659327;86;21259;-65
2022/09/03 10:40:57;;;;;;;2.83;0.93;;;;;;;25.53;29.15;100627.02;1660058;86;22105;-56
2022/09/03 10:43:44;;;;;;;4.57;0.73;;;;;;;25.51;30.10;100620.38;1659908;86;20973;-59
2022/09/03 10:46:21;;;;;;;1.93;0.77;;;;;;;25.64;29.14;100611.22;1660220;84;21079;-57
2022/09/03 10:49:09;;;;;;;2.17;0.90;;;;;;;25.59;29.29;100613.13;1659996;84;21541;-56
2022/09/03 10:51:41;;;;;;;3.07;1.20;;;;;;;25.44;29.49;100613.45;1652208;84;21588;-57
2022/09/03 10:54:31;;;;;;;1.70;1.00;;;;;;;25.37;29.58;100608.14;1659717;84;21108;-57
2022/09/03 10:57:32;;;;;;;1.60;0.80;;;;;;;25.36;30.21;100626.03;1659535;86;21103;-63
2022/09/03 11:00:12;;;;;;;2.35;0.90;;;;;;;25.50;29.65;100618.79;1660040;86;21730;-57
2022/09/03 11:03:03;;;;;;;2.37;1.00;;;;;;;25.40;29.62;100593.72;1659609;86;21039;-57
2022/09/03 11:05:38;;;;;;;1.92;1.10;;;;;;;25.41;29.92;100599.86;1660447;86;21243;-57
2022/09/03 11:08:22;;;;;;;14.30;2.10;;;;;;;25.43;29.99;100600.39;1663748;85;21613;-59
2022/09/03 11:10:55;;;;;;;2.73;0.70;;;;;;;25.51;29.58;100601.16;1670939;85;21151;-57
2022/09/03 11:13:42;;;;;;;2.87;0.80;;;;;;;25.54;29.80;100590.48;1671246;85;21055;-56
2022/09/03 11:16:25;;;;;;;1.50;0.80;;;;;;;25.74;29.78;100595.70;1672152;85;21400;-58
2022/09/03 11:19:04;;;;;;;2.70;0.80;;;;;;;25.90;29.00;100594.55;1672437;84;21260;-66
2022/09/03 11:21:31;;;;;;;2.10;1.00;;;;;;;25.94;29.25;100594.26;1671859;85;21104;-57
2022/09/03 11:24:12;;;;;;;1.90;0.80;;;;;;;25.96;29.07;100592.66;1672065;84;21113;-57
2022/09/03 11:26:43;;;;;;;1.60;1.00;;;;;;;25.83;29.01;100586.05;1671965;84;21048;-58
2022/09/03 11:29:31;;;;;;;2.63;1.00;;;;;;;25.67;29.48;100587.19;1671550;85;21102;-58
2022/09/03 11:32:10;;;;;;;2.97;1.03;;;;;;;25.53;29.61;100583.52;1659538;85;21896;-57
2022/09/03 11:34:51;;;;;;;3.23;1.00;;;;;;;25.44;29.67;100589.44;1671469;85;21134;-58
2022/09/03 11:37:29;;;;;;;2.12;0.95;;;;;;;25.41;29.98;100584.64;1645858;85;21119;-57
2022/09/03 11:40:02;;;;;;;4.13;1.43;;;;;;;25.47;29.85;100578.75;1671784;85;21052;-65
2022/09/03 11:42:40;;;;;;;1.93;0.97;;;;;;;25.37;30.05;100584.92;1665126;85;21074;-57
2022/09/03 11:45:30;;;;;;;2.00;0.90;;;;;;;25.30;30.05;100577.74;1672221;85;21267;-55
2022/09/03 11:47:59;;;;;;;4.58;1.00;;;;;;;25.18;30.21;100577.27;1644133;85;21036;-64
2022/09/03 11:50:31;;;;;;;2.33;0.90;;;;;;;25.03;29.96;100570.08;1672162;84;21123;-55
2022/09/03 11:53:15;;;;;;;3.62;0.95;;;;;;;24.86;30.48;100573.06;1671579;84;21028;-55
2022/09/03 11:55:54;;;;;;;1.87;0.60;;;;;;;24.77;30.67;100572.00;1656425;84;21036;-55
2022/09/03 11:58:32;;;;;;;1.57;0.70;;;;;;;24.66;30.69;100567.25;1672150;85;21540;-54
2022/09/03 12:01:03;;;;;;;1.87;0.90;;;;;;;24.60;30.62;100566.19;1672252;85;21090;-55
2022/09/03 12:03:53;;;;;;;2.30;1.00;;;;;;;24.62;30.62;100573.36;1643603;85;24948;-56
2022/09/03 12:07:05;;;;;;;2.27;0.83;;;;;;;24.62;30.57;100576.03;1671354;85;21036;-57